sensor_id;sensor_type;location;lat;lon;timestamp;temperature;humidity
70271;SHT31;57680;54.292;18.598;2023-04-15T00:02:23;9.74;84.04
70271;SHT31;57680;54.292;18.598;2023-04-15T00:04:49;9.74;84.25
70271;SHT31;57680;54.292;18.598;2023-04-15T00:07:14;9.73;84.07
70271;SHT31;57680;54.292;18.598;2023-04-15T00:09:40;9.74;84.12
70271;SHT31;57680;54.292;18.598;2023-04-15T00:12:06;9.79;84.01
70271;SHT31;57680;54.292;18.598;2023-04-15T00:14:33;9.76;83.98
70271;SHT31;57680;54.292;18.598;2023-04-15T00:16:58;9.77;83.91
70271;SHT31;57680;54.292;18.598;2023-04-15T00:19:24;9.70;84.21
70271;SHT31;57680;54.292;18.598;2023-04-15T00:21:49;9.70;84.14
70271;SHT31;57680;54.292;18.598;2023-04-15T00:24:14;9.73;84.34
70271;SHT31;57680;54.292;18.598;2023-04-15T00:26:40;9.70;84.33
70271;SHT31;57680;54.292;18.598;2023-04-15T00:29:05;9.67;84.43
70271;SHT31;57680;54.292;18.598;2023-04-15T00:31:31;9.67;84.59
70271;SHT31;57680;54.292;18.598;2023-04-15T00:33:56;9.69;84.49
70271;SHT31;57680;54.292;18.598;2023-04-15T00:36:23;9.67;84.54
70271;SHT31;57680;54.292;18.598;2023-04-15T00:38:48;9.62;84.70
70271;SHT31;57680;54.292;18.598;2023-04-15T00:41:14;9.60;84.76
70271;SHT31;57680;54.292;18.598;2023-04-15T00:43:39;9.57;84.85
70271;SHT31;57680;54.292;18.598;2023-04-15T00:46:05;9.55;85.05
70271;SHT31;57680;54.292;18.598;2023-04-15T00:48:31;9.56;84.90
70271;SHT31;57680;54.292;18.598;2023-04-15T00:50:56;9.52;84.87
70271;SHT31;57680;54.292;18.598;2023-04-15T00:53:22;9.49;85.12
70271;SHT31;57680;54.292;18.598;2023-04-15T00:55:48;9.52;85.08
70271;SHT31;57680;54.292;18.598;2023-04-15T00:58:13;9.49;85.21
70271;SHT31;57680;54.292;18.598;2023-04-15T01:00:39;9.49;85.10
70271;SHT31;57680;54.292;18.598;2023-04-15T01:03:04;9.50;85.07
70271;SHT31;57680;54.292;18.598;2023-04-15T01:05:30;9.49;85.08
70271;SHT31;57680;54.292;18.598;2023-04-15T01:07:56;9.49;85.06
70271;SHT31;57680;54.292;18.598;2023-04-15T01:10:22;9.46;85.11
70271;SHT31;57680;54.292;18.598;2023-04-15T01:12:48;9.46;85.14
70271;SHT31;57680;54.292;18.598;2023-04-15T01:15:14;9.45;85.11
70271;SHT31;57680;54.292;18.598;2023-04-15T01:17:41;9.50;85.11
70271;SHT31;57680;54.292;18.598;2023-04-15T01:20:07;9.47;84.89
70271;SHT31;57680;54.292;18.598;2023-04-15T01:22:33;9.49;85.02
70271;SHT31;57680;54.292;18.598;2023-04-15T01:25:09;9.50;85.00
70271;SHT31;57680;54.292;18.598;2023-04-15T01:27:38;9.49;84.87
70271;SHT31;57680;54.292;18.598;2023-04-15T01:30:04;9.50;84.84
70271;SHT31;57680;54.292;18.598;2023-04-15T01:32:30;9.52;84.90
70271;SHT31;57680;54.292;18.598;2023-04-15T01:34:55;9.50;84.80
70271;SHT31;57680;54.292;18.598;2023-04-15T01:37:21;9.46;84.89
70271;SHT31;57680;54.292;18.598;2023-04-15T01:39:46;9.49;84.87
70271;SHT31;57680;54.292;18.598;2023-04-15T01:42:11;9.43;85.07
70271;SHT31;57680;54.292;18.598;2023-04-15T01:44:37;9.39;85.39
70271;SHT31;57680;54.292;18.598;2023-04-15T01:47:02;9.35;85.50
70271;SHT31;57680;54.292;18.598;2023-04-15T01:49:28;9.26;85.56
70271;SHT31;57680;54.292;18.598;2023-04-15T01:51:53;9.28;85.52
70271;SHT31;57680;54.292;18.598;2023-04-15T01:54:19;9.25;85.50
70271;SHT31;57680;54.292;18.598;2023-04-15T01:56:44;9.25;85.50
70271;SHT31;57680;54.292;18.598;2023-04-15T01:59:10;9.25;85.65
70271;SHT31;57680;54.292;18.598;2023-04-15T02:01:35;9.24;85.81
70271;SHT31;57680;54.292;18.598;2023-04-15T02:04:01;9.22;85.97
70271;SHT31;57680;54.292;18.598;2023-04-15T02:06:26;9.21;86.01
70271;SHT31;57680;54.292;18.598;2023-04-15T02:08:52;9.12;86.41
70271;SHT31;57680;54.292;18.598;2023-04-15T02:11:17;9.11;86.56
70271;SHT31;57680;54.292;18.598;2023-04-15T02:13:42;9.08;86.79
70271;SHT31;57680;54.292;18.598;2023-04-15T02:16:18;9.07;86.98
70271;SHT31;57680;54.292;18.598;2023-04-15T02:18:46;9.03;87.01
70271;SHT31;57680;54.292;18.598;2023-04-15T02:21:12;9.03;87.28
70271;SHT31;57680;54.292;18.598;2023-04-15T02:23:37;9.01;87.29
70271;SHT31;57680;54.292;18.598;2023-04-15T02:26:03;8.98;87.38
70271;SHT31;57680;54.292;18.598;2023-04-15T02:28:28;8.97;87.28
70271;SHT31;57680;54.292;18.598;2023-04-15T02:30:54;8.95;87.40
70271;SHT31;57680;54.292;18.598;2023-04-15T02:33:20;8.92;87.63
70271;SHT31;57680;54.292;18.598;2023-04-15T02:35:45;8.94;87.82
70271;SHT31;57680;54.292;18.598;2023-04-15T02:38:12;8.87;88.00
70271;SHT31;57680;54.292;18.598;2023-04-15T02:40:37;8.89;87.55
70271;SHT31;57680;54.292;18.598;2023-04-15T02:43:03;8.85;87.77
70271;SHT31;57680;54.292;18.598;2023-04-15T02:45:28;8.85;87.84
70271;SHT31;57680;54.292;18.598;2023-04-15T02:47:53;8.87;87.87
70271;SHT31;57680;54.292;18.598;2023-04-15T02:50:19;8.84;87.86
70271;SHT31;57680;54.292;18.598;2023-04-15T02:52:44;8.81;87.98
70271;SHT31;57680;54.292;18.598;2023-04-15T02:55:10;8.80;87.96
70271;SHT31;57680;54.292;18.598;2023-04-15T02:57:36;8.83;88.09
70271;SHT31;57680;54.292;18.598;2023-04-15T03:00:03;8.84;87.99
70271;SHT31;57680;54.292;18.598;2023-04-15T03:02:33;8.84;88.09
70271;SHT31;57680;54.292;18.598;2023-04-15T03:04:58;8.83;88.03
70271;SHT31;57680;54.292;18.598;2023-04-15T03:07:24;8.85;88.02
70271;SHT31;57680;54.292;18.598;2023-04-15T03:09:49;8.85;87.82
70271;SHT31;57680;54.292;18.598;2023-04-15T03:12:15;8.87;87.80
70271;SHT31;57680;54.292;18.598;2023-04-15T03:14:40;8.88;87.77
70271;SHT31;57680;54.292;18.598;2023-04-15T03:17:06;8.87;87.88
70271;SHT31;57680;54.292;18.598;2023-04-15T03:19:31;8.92;87.62
70271;SHT31;57680;54.292;18.598;2023-04-15T03:21:57;8.85;87.62
70271;SHT31;57680;54.292;18.598;2023-04-15T03:24:23;8.91;87.46
70271;SHT31;57680;54.292;18.598;2023-04-15T03:26:49;8.92;87.22
70271;SHT31;57680;54.292;18.598;2023-04-15T03:29:14;8.88;87.35
70271;SHT31;57680;54.292;18.598;2023-04-15T03:31:41;8.89;87.07
70271;SHT31;57680;54.292;18.598;2023-04-15T03:34:06;8.91;87.09
70271;SHT31;57680;54.292;18.598;2023-04-15T03:36:31;8.91;87.03
70271;SHT31;57680;54.292;18.598;2023-04-15T03:38:57;8.97;86.78
70271;SHT31;57680;54.292;18.598;2023-04-15T03:41:23;8.92;86.87
70271;SHT31;57680;54.292;18.598;2023-04-15T03:43:48;8.94;86.86
70271;SHT31;57680;54.292;18.598;2023-04-15T03:46:13;9.01;86.56
70271;SHT31;57680;54.292;18.598;2023-04-15T03:48:39;9.01;86.32
70271;SHT31;57680;54.292;18.598;2023-04-15T03:51:04;9.03;86.19
70271;SHT31;57680;54.292;18.598;2023-04-15T03:53:30;9.01;86.47
70271;SHT31;57680;54.292;18.598;2023-04-15T03:55:55;9.05;86.41
70271;SHT31;57680;54.292;18.598;2023-04-15T03:58:21;8.98;86.50
70271;SHT31;57680;54.292;18.598;2023-04-15T04:00:46;9.01;86.42
70271;SHT31;57680;54.292;18.598;2023-04-15T04:03:12;8.97;86.53
70271;SHT31;57680;54.292;18.598;2023-04-15T04:05:37;8.94;86.57
70271;SHT31;57680;54.292;18.598;2023-04-15T04:08:03;8.88;86.88
70271;SHT31;57680;54.292;18.598;2023-04-15T04:10:29;8.98;86.70
70271;SHT31;57680;54.292;18.598;2023-04-15T04:12:54;8.95;86.71
70271;SHT31;57680;54.292;18.598;2023-04-15T04:15:19;8.94;86.68
70271;SHT31;57680;54.292;18.598;2023-04-15T04:17:45;8.91;86.99
70271;SHT31;57680;54.292;18.598;2023-04-15T04:20:10;8.94;87.10
70271;SHT31;57680;54.292;18.598;2023-04-15T04:22:39;8.95;86.90
70271;SHT31;57680;54.292;18.598;2023-04-15T04:25:05;8.97;86.73
70271;SHT31;57680;54.292;18.598;2023-04-15T04:27:31;8.97;86.84
70271;SHT31;57680;54.292;18.598;2023-04-15T04:29:56;8.97;86.76
70271;SHT31;57680;54.292;18.598;2023-04-15T04:32:22;9.00;86.72
70271;SHT31;57680;54.292;18.598;2023-04-15T04:34:47;9.05;86.77
70271;SHT31;57680;54.292;18.598;2023-04-15T04:37:13;9.05;86.69
70271;SHT31;57680;54.292;18.598;2023-04-15T04:39:38;9.05;86.82
70271;SHT31;57680;54.292;18.598;2023-04-15T04:42:04;9.10;86.64
70271;SHT31;57680;54.292;18.598;2023-04-15T04:44:29;9.10;86.67
70271;SHT31;57680;54.292;18.598;2023-04-15T04:46:55;9.19;86.49
70271;SHT31;57680;54.292;18.598;2023-04-15T04:49:20;9.16;86.47
70271;SHT31;57680;54.292;18.598;2023-04-15T04:51:46;9.16;86.39
70271;SHT31;57680;54.292;18.598;2023-04-15T04:54:11;9.24;86.34
70271;SHT31;57680;54.292;18.598;2023-04-15T04:56:37;9.18;86.44
70271;SHT31;57680;54.292;18.598;2023-04-15T04:59:02;9.21;86.32
70271;SHT31;57680;54.292;18.598;2023-04-15T05:01:27;9.24;86.41
70271;SHT31;57680;54.292;18.598;2023-04-15T05:03:53;9.25;86.19
70271;SHT31;57680;54.292;18.598;2023-04-15T05:06:18;9.26;86.30
70271;SHT31;57680;54.292;18.598;2023-04-15T05:08:44;9.31;86.35
70271;SHT31;57680;54.292;18.598;2023-04-15T05:11:09;9.34;86.14
70271;SHT31;57680;54.292;18.598;2023-04-15T05:13:35;9.38;86.12
70271;SHT31;57680;54.292;18.598;2023-04-15T05:16:00;9.39;86.11
70271;SHT31;57680;54.292;18.598;2023-04-15T05:18:26;9.40;86.05
70271;SHT31;57680;54.292;18.598;2023-04-15T05:20:51;9.46;85.90
70271;SHT31;57680;54.292;18.598;2023-04-15T05:23:17;9.52;85.69
70271;SHT31;57680;54.292;18.598;2023-04-15T05:25:42;9.57;85.57
70271;SHT31;57680;54.292;18.598;2023-04-15T05:28:07;9.60;85.69
70271;SHT31;57680;54.292;18.598;2023-04-15T05:30:33;9.65;85.56
70271;SHT31;57680;54.292;18.598;2023-04-15T05:32:58;9.76;85.04
70271;SHT31;57680;54.292;18.598;2023-04-15T05:35:24;9.86;85.06
70271;SHT31;57680;54.292;18.598;2023-04-15T05:37:49;9.94;84.57
70271;SHT31;57680;54.292;18.598;2023-04-15T05:40:15;9.98;84.47
70271;SHT31;57680;54.292;18.598;2023-04-15T05:42:40;10.03;84.30
70271;SHT31;57680;54.292;18.598;2023-04-15T05:45:06;10.18;83.95
70271;SHT31;57680;54.292;18.598;2023-04-15T05:47:31;10.25;83.77
70271;SHT31;57680;54.292;18.598;2023-04-15T05:49:57;10.28;83.41
70271;SHT31;57680;54.292;18.598;2023-04-15T05:52:22;10.38;83.50
70271;SHT31;57680;54.292;18.598;2023-04-15T05:54:47;10.40;83.48
70271;SHT31;57680;54.292;18.598;2023-04-15T05:57:13;10.44;83.73
70271;SHT31;57680;54.292;18.598;2023-04-15T05:59:39;10.59;82.29
70271;SHT31;57680;54.292;18.598;2023-04-15T06:02:04;10.59;83.05
70271;SHT31;57680;54.292;18.598;2023-04-15T06:04:29;10.66;82.97
70271;SHT31;57680;54.292;18.598;2023-04-15T06:06:55;10.83;81.35
70271;SHT31;57680;54.292;18.598;2023-04-15T06:09:20;10.88;81.64
70271;SHT31;57680;54.292;18.598;2023-04-15T06:11:47;11.03;80.95
70271;SHT31;57680;54.292;18.598;2023-04-15T06:14:12;10.96;80.72
70271;SHT31;57680;54.292;18.598;2023-04-15T06:16:37;10.96;80.69
70271;SHT31;57680;54.292;18.598;2023-04-15T06:19:03;11.02;80.92
70271;SHT31;57680;54.292;18.598;2023-04-15T06:21:29;11.17;79.82
70271;SHT31;57680;54.292;18.598;2023-04-15T06:23:55;11.23;80.05
70271;SHT31;57680;54.292;18.598;2023-04-15T06:26:20;11.33;79.76
70271;SHT31;57680;54.292;18.598;2023-04-15T06:28:46;11.33;79.69
70271;SHT31;57680;54.292;18.598;2023-04-15T06:31:12;11.33;79.45
70271;SHT31;57680;54.292;18.598;2023-04-15T06:33:37;11.44;79.14
70271;SHT31;57680;54.292;18.598;2023-04-15T06:36:02;11.47;79.44
70271;SHT31;57680;54.292;18.598;2023-04-15T06:38:29;11.68;79.37
70271;SHT31;57680;54.292;18.598;2023-04-15T06:40:54;11.79;77.34
70271;SHT31;57680;54.292;18.598;2023-04-15T06:43:19;11.81;77.40
70271;SHT31;57680;54.292;18.598;2023-04-15T06:45:45;11.94;76.80
70271;SHT31;57680;54.292;18.598;2023-04-15T06:48:10;12.01;77.17
70271;SHT31;57680;54.292;18.598;2023-04-15T06:50:36;11.99;77.13
70271;SHT31;57680;54.292;18.598;2023-04-15T06:53:01;12.01;76.13
70271;SHT31;57680;54.292;18.598;2023-04-15T06:55:27;11.95;76.22
70271;SHT31;57680;54.292;18.598;2023-04-15T06:57:52;11.82;76.50
70271;SHT31;57680;54.292;18.598;2023-04-15T07:00:18;11.79;77.56
70271;SHT31;57680;54.292;18.598;2023-04-15T07:02:43;11.82;76.18
70271;SHT31;57680;54.292;18.598;2023-04-15T07:05:09;11.89;76.39
70271;SHT31;57680;54.292;18.598;2023-04-15T07:07:34;11.95;76.82
70271;SHT31;57680;54.292;18.598;2023-04-15T07:10:00;11.99;75.31
70271;SHT31;57680;54.292;18.598;2023-04-15T07:12:25;12.01;76.00
70271;SHT31;57680;54.292;18.598;2023-04-15T07:14:50;11.98;76.97
70271;SHT31;57680;54.292;18.598;2023-04-15T07:17:16;11.99;74.59
70271;SHT31;57680;54.292;18.598;2023-04-15T07:19:41;12.02;75.71
70271;SHT31;57680;54.292;18.598;2023-04-15T07:22:06;11.95;75.42
70271;SHT31;57680;54.292;18.598;2023-04-15T07:24:32;11.81;75.67
70271;SHT31;57680;54.292;18.598;2023-04-15T07:26:58;11.74;75.51
70271;SHT31;57680;54.292;18.598;2023-04-15T07:29:23;11.73;75.43
70271;SHT31;57680;54.292;18.598;2023-04-15T07:31:49;11.82;74.42
70271;SHT31;57680;54.292;18.598;2023-04-15T07:34:14;11.78;74.72
70271;SHT31;57680;54.292;18.598;2023-04-15T07:36:40;11.77;74.81
70271;SHT31;57680;54.292;18.598;2023-04-15T07:39:05;11.82;75.65
70271;SHT31;57680;54.292;18.598;2023-04-15T07:41:31;11.82;75.40
70271;SHT31;57680;54.292;18.598;2023-04-15T07:43:56;11.94;74.91
70271;SHT31;57680;54.292;18.598;2023-04-15T07:46:21;11.85;74.98
70271;SHT31;57680;54.292;18.598;2023-04-15T07:48:47;11.84;75.62
70271;SHT31;57680;54.292;18.598;2023-04-15T07:51:12;11.81;75.91
70271;SHT31;57680;54.292;18.598;2023-04-15T07:53:38;11.77;75.25
70271;SHT31;57680;54.292;18.598;2023-04-15T07:56:04;11.75;75.45
70271;SHT31;57680;54.292;18.598;2023-04-15T07:58:29;11.77;75.70
70271;SHT31;57680;54.292;18.598;2023-04-15T08:00:54;11.68;75.37
70271;SHT31;57680;54.292;18.598;2023-04-15T08:03:21;11.70;76.32
70271;SHT31;57680;54.292;18.598;2023-04-15T08:05:46;11.73;75.40
70271;SHT31;57680;54.292;18.598;2023-04-15T08:08:12;11.73;76.31
70271;SHT31;57680;54.292;18.598;2023-04-15T08:10:37;11.74;76.29
70271;SHT31;57680;54.292;18.598;2023-04-15T08:13:03;11.70;76.42
70271;SHT31;57680;54.292;18.598;2023-04-15T08:15:28;11.60;76.59
70271;SHT31;57680;54.292;18.598;2023-04-15T08:17:53;11.50;77.44
70271;SHT31;57680;54.292;18.598;2023-04-15T08:20:19;11.44;78.11
70271;SHT31;57680;54.292;18.598;2023-04-15T08:22:44;11.37;78.48
70271;SHT31;57680;54.292;18.598;2023-04-15T08:25:10;11.31;78.37
70271;SHT31;57680;54.292;18.598;2023-04-15T08:27:36;11.30;79.06
70271;SHT31;57680;54.292;18.598;2023-04-15T08:30:01;11.35;79.39
70271;SHT31;57680;54.292;18.598;2023-04-15T08:32:27;11.41;78.66
70271;SHT31;57680;54.292;18.598;2023-04-15T08:34:52;11.45;78.46
70271;SHT31;57680;54.292;18.598;2023-04-15T08:37:18;11.57;78.28
70271;SHT31;57680;54.292;18.598;2023-04-15T08:39:44;11.61;77.95
70271;SHT31;57680;54.292;18.598;2023-04-15T08:42:16;11.61;77.72
70271;SHT31;57680;54.292;18.598;2023-04-15T08:44:43;11.57;77.43
70271;SHT31;57680;54.292;18.598;2023-04-15T08:47:12;11.51;77.94
70271;SHT31;57680;54.292;18.598;2023-04-15T08:49:41;11.38;78.37
70271;SHT31;57680;54.292;18.598;2023-04-15T08:52:07;11.45;78.72
70271;SHT31;57680;54.292;18.598;2023-04-15T08:54:34;11.44;78.88
70271;SHT31;57680;54.292;18.598;2023-04-15T08:56:59;11.44;77.96
70271;SHT31;57680;54.292;18.598;2023-04-15T08:59:25;11.51;76.40
70271;SHT31;57680;54.292;18.598;2023-04-15T09:01:50;11.74;74.17
70271;SHT31;57680;54.292;18.598;2023-04-15T09:04:17;11.67;74.63
70271;SHT31;57680;54.292;18.598;2023-04-15T09:06:42;11.71;74.70
70271;SHT31;57680;54.292;18.598;2023-04-15T09:09:08;11.75;73.20
70271;SHT31;57680;54.292;18.598;2023-04-15T09:11:33;11.79;73.18
70271;SHT31;57680;54.292;18.598;2023-04-15T09:13:59;11.96;72.73
70271;SHT31;57680;54.292;18.598;2023-04-15T09:16:24;12.02;72.34
70271;SHT31;57680;54.292;18.598;2023-04-15T09:18:50;12.04;72.56
70271;SHT31;57680;54.292;18.598;2023-04-15T09:21:16;11.88;74.00
70271;SHT31;57680;54.292;18.598;2023-04-15T09:23:57;11.94;73.21
70271;SHT31;57680;54.292;18.598;2023-04-15T09:26:34;11.91;72.87
70271;SHT31;57680;54.292;18.598;2023-04-15T09:29:09;11.91;73.52
70271;SHT31;57680;54.292;18.598;2023-04-15T09:31:36;11.98;73.58
70271;SHT31;57680;54.292;18.598;2023-04-15T09:34:02;11.99;73.35
70271;SHT31;57680;54.292;18.598;2023-04-15T09:36:27;12.13;72.18
70271;SHT31;57680;54.292;18.598;2023-04-15T09:38:57;12.11;72.67
70271;SHT31;57680;54.292;18.598;2023-04-15T09:41:24;12.04;72.51
70271;SHT31;57680;54.292;18.598;2023-04-15T09:43:50;12.08;73.04
70271;SHT31;57680;54.292;18.598;2023-04-15T09:46:15;11.98;72.64
70271;SHT31;57680;54.292;18.598;2023-04-15T09:48:40;12.06;72.61
70271;SHT31;57680;54.292;18.598;2023-04-15T09:51:06;12.04;72.43
70271;SHT31;57680;54.292;18.598;2023-04-15T09:53:34;12.08;72.79
70271;SHT31;57680;54.292;18.598;2023-04-15T09:55:59;12.01;73.02
70271;SHT31;57680;54.292;18.598;2023-04-15T09:58:27;11.91;74.11
70271;SHT31;57680;54.292;18.598;2023-04-15T10:00:54;11.95;74.79
70271;SHT31;57680;54.292;18.598;2023-04-15T10:03:24;11.85;73.87
70271;SHT31;57680;54.292;18.598;2023-04-15T10:05:51;11.95;74.53
70271;SHT31;57680;54.292;18.598;2023-04-15T10:08:26;12.02;73.78
70271;SHT31;57680;54.292;18.598;2023-04-15T10:10:52;12.01;73.32
70271;SHT31;57680;54.292;18.598;2023-04-15T10:13:19;12.06;73.72
70271;SHT31;57680;54.292;18.598;2023-04-15T10:15:59;12.28;73.78
70271;SHT31;57680;54.292;18.598;2023-04-15T10:18:26;12.36;72.81
70271;SHT31;57680;54.292;18.598;2023-04-15T10:20:53;12.44;73.35
70271;SHT31;57680;54.292;18.598;2023-04-15T10:23:19;12.60;71.87
70271;SHT31;57680;54.292;18.598;2023-04-15T10:25:45;12.64;72.49
70271;SHT31;57680;54.292;18.598;2023-04-15T10:28:11;12.67;72.43
70271;SHT31;57680;54.292;18.598;2023-04-15T10:30:37;12.68;72.07
70271;SHT31;57680;54.292;18.598;2023-04-15T10:33:05;12.64;72.40
70271;SHT31;57680;54.292;18.598;2023-04-15T10:35:31;12.66;72.76
70271;SHT31;57680;54.292;18.598;2023-04-15T10:37:57;12.59;72.47
70271;SHT31;57680;54.292;18.598;2023-04-15T10:40:30;12.60;71.89
70271;SHT31;57680;54.292;18.598;2023-04-15T10:43:00;12.64;73.02
70271;SHT31;57680;54.292;18.598;2023-04-15T10:45:36;12.73;73.15
70271;SHT31;57680;54.292;18.598;2023-04-15T10:48:04;12.61;73.62
70271;SHT31;57680;54.292;18.598;2023-04-15T10:50:31;12.53;74.25
70271;SHT31;57680;54.292;18.598;2023-04-15T10:52:57;12.54;74.24
70271;SHT31;57680;54.292;18.598;2023-04-15T10:55:30;12.64;74.38
70271;SHT31;57680;54.292;18.598;2023-04-15T10:58:00;12.57;74.55
70271;SHT31;57680;54.292;18.598;2023-04-15T11:00:31;12.49;74.59
70271;SHT31;57680;54.292;18.598;2023-04-15T11:02:59;12.36;74.95
70271;SHT31;57680;54.292;18.598;2023-04-15T11:08:07;12.19;74.68
70271;SHT31;57680;54.292;18.598;2023-04-15T11:10:49;12.16;74.06
70271;SHT31;57680;54.292;18.598;2023-04-15T11:13:18;12.19;74.79
70271;SHT31;57680;54.292;18.598;2023-04-15T11:15:45;12.09;74.96
70271;SHT31;57680;54.292;18.598;2023-04-15T11:18:19;11.99;75.09
70271;SHT31;57680;54.292;18.598;2023-04-15T11:20:55;11.91;75.44
70271;SHT31;57680;54.292;18.598;2023-04-15T11:26:02;11.89;75.81
70271;SHT31;57680;54.292;18.598;2023-04-15T11:28:29;11.94;76.00
70271;SHT31;57680;54.292;18.598;2023-04-15T11:30:56;12.05;75.99
70271;SHT31;57680;54.292;18.598;2023-04-15T11:33:23;12.13;75.73
70271;SHT31;57680;54.292;18.598;2023-04-15T11:35:49;12.32;74.84
70271;SHT31;57680;54.292;18.598;2023-04-15T11:38:15;12.35;74.61
70271;SHT31;57680;54.292;18.598;2023-04-15T11:40:41;12.50;74.56
70271;SHT31;57680;54.292;18.598;2023-04-15T11:43:09;12.54;74.94
70271;SHT31;57680;54.292;18.598;2023-04-15T11:46:07;12.52;74.00
70271;SHT31;57680;54.292;18.598;2023-04-15T11:48:34;12.68;74.76
70271;SHT31;57680;54.292;18.598;2023-04-15T11:51:05;12.87;73.73
70271;SHT31;57680;54.292;18.598;2023-04-15T11:56:07;12.98;73.67
70271;SHT31;57680;54.292;18.598;2023-04-15T11:58:35;13.08;73.57
70271;SHT31;57680;54.292;18.598;2023-04-15T12:01:00;13.10;72.61
70271;SHT31;57680;54.292;18.598;2023-04-15T12:06:17;13.16;72.06
70271;SHT31;57680;54.292;18.598;2023-04-15T12:11:18;13.01;73.02
70271;SHT31;57680;54.292;18.598;2023-04-15T12:13:48;13.07;72.21
70271;SHT31;57680;54.292;18.598;2023-04-15T12:16:20;12.91;72.71
70271;SHT31;57680;54.292;18.598;2023-04-15T12:18:47;12.80;73.48
70271;SHT31;57680;54.292;18.598;2023-04-15T12:21:14;12.72;74.22
70271;SHT31;57680;54.292;18.598;2023-04-15T12:24:01;12.46;74.68
70271;SHT31;57680;54.292;18.598;2023-04-15T12:26:34;12.52;75.47
70271;SHT31;57680;54.292;18.598;2023-04-15T12:29:01;12.40;75.89
70271;SHT31;57680;54.292;18.598;2023-04-15T12:31:27;12.44;75.19
70271;SHT31;57680;54.292;18.598;2023-04-15T12:33:56;12.54;74.74
70271;SHT31;57680;54.292;18.598;2023-04-15T12:36:22;12.29;75.03
70271;SHT31;57680;54.292;18.598;2023-04-15T12:38:48;12.21;76.05
70271;SHT31;57680;54.292;18.598;2023-04-15T12:41:13;12.05;75.90
70271;SHT31;57680;54.292;18.598;2023-04-15T12:43:39;12.02;76.22
70271;SHT31;57680;54.292;18.598;2023-04-15T12:46:04;12.05;76.05
70271;SHT31;57680;54.292;18.598;2023-04-15T12:48:30;12.05;76.01
70271;SHT31;57680;54.292;18.598;2023-04-15T12:50:55;11.92;76.58
70271;SHT31;57680;54.292;18.598;2023-04-15T12:53:21;11.88;76.45
70271;SHT31;57680;54.292;18.598;2023-04-15T12:55:46;11.86;76.81
70271;SHT31;57680;54.292;18.598;2023-04-15T12:58:11;11.82;76.88
70271;SHT31;57680;54.292;18.598;2023-04-15T13:00:37;11.81;77.30
70271;SHT31;57680;54.292;18.598;2023-04-15T13:03:02;11.71;77.93
70271;SHT31;57680;54.292;18.598;2023-04-15T13:05:28;11.67;78.32
70271;SHT31;57680;54.292;18.598;2023-04-15T13:07:54;11.64;78.73
70271;SHT31;57680;54.292;18.598;2023-04-15T13:10:19;11.71;77.72
70271;SHT31;57680;54.292;18.598;2023-04-15T13:12:44;11.65;78.36
70271;SHT31;57680;54.292;18.598;2023-04-15T13:15:10;11.73;78.85
70271;SHT31;57680;54.292;18.598;2023-04-15T13:17:36;11.77;77.26
70271;SHT31;57680;54.292;18.598;2023-04-15T13:20:02;11.82;77.30
70271;SHT31;57680;54.292;18.598;2023-04-15T13:22:27;11.73;77.51
70271;SHT31;57680;54.292;18.598;2023-04-15T13:24:55;11.77;77.31
70271;SHT31;57680;54.292;18.598;2023-04-15T13:27:21;11.61;77.95
70271;SHT31;57680;54.292;18.598;2023-04-15T13:29:46;11.54;77.97
70271;SHT31;57680;54.292;18.598;2023-04-15T13:32:12;11.54;78.13
70271;SHT31;57680;54.292;18.598;2023-04-15T13:34:37;11.58;77.91
70271;SHT31;57680;54.292;18.598;2023-04-15T13:37:08;11.55;77.87
70271;SHT31;57680;54.292;18.598;2023-04-15T13:39:34;11.47;78.31
70271;SHT31;57680;54.292;18.598;2023-04-15T13:41:59;11.48;78.35
70271;SHT31;57680;54.292;18.598;2023-04-15T13:44:25;11.27;79.04
70271;SHT31;57680;54.292;18.598;2023-04-15T13:46:51;11.23;79.82
70271;SHT31;57680;54.292;18.598;2023-04-15T13:49:16;11.26;79.98
70271;SHT31;57680;54.292;18.598;2023-04-15T13:51:42;11.16;80.46
70271;SHT31;57680;54.292;18.598;2023-04-15T13:54:07;11.28;79.50
70271;SHT31;57680;54.292;18.598;2023-04-15T13:56:33;11.23;79.47
70271;SHT31;57680;54.292;18.598;2023-04-15T13:58:59;11.24;79.58
70271;SHT31;57680;54.292;18.598;2023-04-15T14:01:24;11.23;79.54
70271;SHT31;57680;54.292;18.598;2023-04-15T14:03:49;11.22;79.63
70271;SHT31;57680;54.292;18.598;2023-04-15T14:06:15;11.13;80.42
70271;SHT31;57680;54.292;18.598;2023-04-15T14:08:40;11.06;80.51
70271;SHT31;57680;54.292;18.598;2023-04-15T14:11:06;11.20;80.00
70271;SHT31;57680;54.292;18.598;2023-04-15T14:13:31;11.14;80.28
70271;SHT31;57680;54.292;18.598;2023-04-15T14:15:57;11.13;80.62
70271;SHT31;57680;54.292;18.598;2023-04-15T14:18:22;11.13;80.48
70271;SHT31;57680;54.292;18.598;2023-04-15T14:20:48;11.02;80.39
70271;SHT31;57680;54.292;18.598;2023-04-15T14:23:13;11.06;80.45
70271;SHT31;57680;54.292;18.598;2023-04-15T14:25:38;10.97;80.06
70271;SHT31;57680;54.292;18.598;2023-04-15T14:28:04;11.00;80.61
70271;SHT31;57680;54.292;18.598;2023-04-15T14:30:29;11.06;80.12
70271;SHT31;57680;54.292;18.598;2023-04-15T14:32:55;11.13;79.51
70271;SHT31;57680;54.292;18.598;2023-04-15T14:35:20;11.03;80.54
70271;SHT31;57680;54.292;18.598;2023-04-15T14:37:46;10.96;80.83
70271;SHT31;57680;54.292;18.598;2023-04-15T14:40:12;10.95;80.49
70271;SHT31;57680;54.292;18.598;2023-04-15T14:42:37;10.89;81.09
70271;SHT31;57680;54.292;18.598;2023-04-15T14:45:03;10.92;81.18
70271;SHT31;57680;54.292;18.598;2023-04-15T14:47:28;10.92;80.83
70271;SHT31;57680;54.292;18.598;2023-04-15T14:49:53;10.91;81.44
70271;SHT31;57680;54.292;18.598;2023-04-15T14:52:19;10.83;81.73
70271;SHT31;57680;54.292;18.598;2023-04-15T14:54:45;10.83;81.75
70271;SHT31;57680;54.292;18.598;2023-04-15T14:57:10;10.80;82.03
70271;SHT31;57680;54.292;18.598;2023-04-15T14:59:36;10.77;82.18
70271;SHT31;57680;54.292;18.598;2023-04-15T15:02:02;10.71;82.24
70271;SHT31;57680;54.292;18.598;2023-04-15T15:04:28;10.64;82.46
70271;SHT31;57680;54.292;18.598;2023-04-15T15:06:53;10.59;82.77
70271;SHT31;57680;54.292;18.598;2023-04-15T15:09:19;10.54;83.15
70271;SHT31;57680;54.292;18.598;2023-04-15T15:11:44;10.49;83.13
70271;SHT31;57680;54.292;18.598;2023-04-15T15:14:10;10.41;83.21
70271;SHT31;57680;54.292;18.598;2023-04-15T15:16:36;10.38;83.38
70271;SHT31;57680;54.292;18.598;2023-04-15T15:19:02;10.34;83.67
70271;SHT31;57680;54.292;18.598;2023-04-15T15:21:27;10.34;84.10
70271;SHT31;57680;54.292;18.598;2023-04-15T15:23:53;10.25;84.19
70271;SHT31;57680;54.292;18.598;2023-04-15T15:26:18;10.21;84.35
70271;SHT31;57680;54.292;18.598;2023-04-15T15:28:44;10.20;84.70
70271;SHT31;57680;54.292;18.598;2023-04-15T15:31:09;10.17;84.90